createdAt,value
2019-01-28T00:00:45.518Z,34.37
2019-01-28T00:03:13.787Z,33.57
2019-01-28T00:05:42.389Z,31.73
2019-01-28T00:08:10.728Z,33.07
2019-01-28T00:10:39.018Z,33.20
2019-01-28T00:13:07.338Z,32.50
2019-01-28T00:15:35.622Z,30.47
2019-01-28T00:18:03.980Z,29.93
2019-01-28T00:20:32.325Z,29.57
2019-01-28T00:23:00.626Z,32.83
2019-01-28T00:25:28.935Z,30.17
2019-01-28T00:27:57.200Z,31.50
2019-01-28T00:30:25.485Z,29.87
2019-01-28T00:32:53.827Z,30.20
2019-01-28T00:35:22.242Z,28.10
2019-01-28T00:37:50.513Z,30.20
2019-01-28T00:40:18.860Z,28.90
2019-01-28T00:42:47.183Z,30.07
2019-01-28T00:45:15.534Z,29.70
2019-01-28T00:47:43.824Z,29.57
2019-01-28T00:50:12.798Z,29.27
2019-01-28T00:52:41.084Z,29.67
2019-01-28T00:55:11.676Z,28.30
2019-01-28T00:57:39.961Z,30.93
2019-01-28T01:00:14.651Z,28.60
2019-01-28T01:02:42.949Z,29.60
2019-01-28T01:05:11.234Z,30.17
2019-01-28T01:07:39.514Z,29.53
2019-01-28T01:10:10.653Z,27.00
2019-01-28T01:12:38.935Z,29.30
2019-01-28T01:15:10.133Z,31.10
2019-01-28T01:17:38.480Z,29.23
2019-01-28T01:20:12.471Z,28.57
2019-01-28T01:22:40.810Z,28.10
2019-01-28T01:25:09.742Z,27.23
2019-01-28T01:27:38.018Z,26.50
2019-01-28T01:30:10.211Z,26.90
2019-01-28T01:32:38.487Z,27.23
2019-01-28T01:35:07.231Z,26.63
2019-01-28T01:37:35.517Z,28.87
2019-01-28T01:40:05.635Z,28.00
2019-01-28T01:42:33.987Z,26.73
2019-01-28T01:45:02.301Z,26.47
2019-01-28T01:47:30.577Z,27.07
2019-01-28T01:49:58.865Z,27.77
2019-01-28T01:52:27.217Z,27.77
2019-01-28T01:54:55.514Z,26.57
2019-01-28T01:57:23.789Z,26.67
2019-01-28T01:59:52.115Z,27.37
2019-01-28T02:02:20.518Z,26.93
2019-01-28T02:04:48.838Z,27.03
2019-01-28T02:07:17.122Z,28.77
2019-01-28T02:09:45.403Z,27.17
2019-01-28T02:12:13.700Z,27.40
2019-01-28T02:14:41.969Z,27.13
2019-01-28T02:17:10.238Z,25.77
2019-01-28T02:19:38.532Z,26.57
2019-01-28T02:22:06.806Z,27.53
2019-01-28T02:24:35.092Z,26.47
2019-01-28T02:27:03.370Z,26.77
2019-01-28T02:29:31.822Z,25.33
2019-01-28T02:32:00.108Z,24.60
2019-01-28T02:34:28.578Z,27.10
2019-01-28T02:36:56.856Z,27.80
2019-01-28T02:39:25.313Z,29.57
2019-01-28T02:41:53.603Z,26.87
2019-01-28T02:44:41.313Z,27.73
2019-01-28T02:47:09.652Z,25.40
2019-01-28T02:49:37.963Z,26.87
2019-01-28T02:52:06.306Z,25.40
2019-01-28T02:54:34.594Z,27.40
2019-01-28T02:57:02.942Z,27.13
2019-01-28T02:59:32.120Z,29.10
2019-01-28T03:02:00.418Z,29.40
2019-01-28T03:04:28.761Z,26.93
2019-01-28T03:06:57.050Z,28.17
2019-01-28T03:09:25.328Z,27.07
2019-01-28T03:11:53.651Z,26.27
2019-01-28T03:14:21.931Z,26.70
2019-01-28T03:16:50.266Z,27.60
2019-01-28T03:19:18.572Z,28.17
2019-01-28T03:21:46.837Z,26.83
2019-01-28T03:24:15.123Z,27.23
2019-01-28T03:26:43.418Z,28.27
2019-01-28T03:29:11.698Z,27.33
2019-01-28T03:31:40.062Z,28.13
2019-01-28T03:34:08.434Z,27.63
2019-01-28T03:36:36.714Z,27.17
2019-01-28T03:39:07.823Z,27.63
2019-01-28T03:41:36.199Z,26.30
2019-01-28T03:44:04.560Z,29.17
2019-01-28T03:46:32.930Z,27.03
2019-01-28T03:49:01.256Z,27.50
2019-01-28T03:51:29.702Z,26.83
2019-01-28T03:53:57.973Z,26.90
2019-01-28T03:56:26.249Z,26.67
2019-01-28T03:58:54.726Z,25.83
2019-01-28T04:01:23.011Z,26.43
2019-01-28T04:03:51.307Z,25.30
2019-01-28T04:06:19.647Z,25.90
2019-01-28T04:08:48.048Z,27.10
2019-01-28T04:11:16.361Z,27.40
2019-01-28T04:13:44.642Z,27.97
2019-01-28T04:16:12.918Z,29.13
2019-01-28T04:18:41.229Z,26.63
2019-01-28T04:21:09.516Z,26.03
2019-01-28T04:23:37.899Z,24.90
2019-01-28T04:26:06.179Z,26.87
2019-01-28T04:28:34.494Z,24.60
2019-01-28T04:31:02.848Z,24.93
2019-01-28T04:33:31.122Z,26.63
2019-01-28T04:35:59.408Z,27.10
2019-01-28T04:38:27.742Z,26.03
2019-01-28T04:40:56.038Z,27.50
2019-01-28T04:43:24.375Z,26.23
2019-01-28T04:45:52.644Z,26.10
2019-01-28T04:48:20.922Z,26.03
2019-01-28T04:50:49.247Z,25.03
2019-01-28T04:53:17.517Z,26.77
2019-01-28T04:55:45.852Z,27.87
2019-01-28T04:58:14.174Z,25.73
2019-01-28T05:00:42.441Z,25.07
2019-01-28T05:03:10.713Z,23.13
2019-01-28T05:05:38.998Z,24.53
2019-01-28T05:08:07.307Z,24.97
2019-01-28T05:10:35.577Z,23.77
2019-01-28T05:13:04.985Z,28.27
2019-01-28T05:15:33.323Z,28.07
2019-01-28T05:18:01.586Z,29.80
2019-01-28T05:20:29.902Z,28.03
2019-01-28T05:22:58.252Z,27.57
2019-01-28T05:25:26.528Z,26.83
2019-01-28T05:27:54.805Z,25.93
2019-01-28T05:30:24.415Z,24.50
2019-01-28T05:32:52.777Z,25.47
2019-01-28T05:35:22.594Z,25.93
2019-01-28T05:37:50.870Z,27.70
2019-01-28T05:40:21.214Z,30.10
2019-01-28T05:42:49.509Z,28.53
2019-01-28T05:45:22.863Z,27.50
2019-01-28T05:47:51.140Z,28.03
2019-01-28T05:50:19.420Z,25.63
2019-01-28T05:52:47.690Z,26.07
2019-01-28T05:55:17.902Z,25.57
2019-01-28T05:57:46.246Z,25.20
2019-01-28T06:00:33.217Z,24.70
2019-01-28T06:03:01.486Z,23.80
2019-01-28T06:05:29.767Z,26.27
2019-01-28T06:07:58.114Z,26.87
2019-01-28T06:10:26.442Z,24.50
2019-01-28T06:12:54.786Z,26.73
2019-01-28T06:15:23.058Z,26.93
2019-01-28T06:17:51.374Z,25.50
2019-01-28T06:20:24.521Z,24.97
2019-01-28T06:22:52.803Z,23.87
2019-01-28T06:25:21.431Z,23.33
2019-01-28T06:27:49.710Z,24.77
2019-01-28T06:30:21.251Z,22.47
2019-01-28T06:32:49.539Z,24.60
2019-01-28T06:35:17.856Z,25.60
2019-01-28T06:37:46.197Z,26.13
2019-01-28T06:40:17.965Z,27.50
2019-01-28T06:42:46.246Z,24.73
2019-01-28T06:45:15.694Z,22.87
2019-01-28T06:47:46.999Z,23.20
2019-01-28T06:50:16.970Z,25.77
2019-01-28T06:52:45.265Z,26.60
2019-01-28T06:55:13.553Z,25.87
2019-01-28T06:57:41.894Z,27.13
2019-01-28T07:00:16.379Z,26.10
2019-01-28T07:02:44.764Z,25.87
2019-01-28T07:05:13.043Z,26.63
2019-01-28T07:07:41.327Z,25.33
2019-01-28T07:10:10.432Z,24.00
2019-01-28T07:12:38.710Z,23.70
2019-01-28T07:15:13.105Z,24.27
2019-01-28T07:17:41.421Z,22.77
2019-01-28T07:20:13.335Z,20.77
2019-01-28T07:22:41.607Z,21.27
2019-01-28T07:25:09.928Z,21.80
2019-01-28T07:27:38.197Z,24.87
2019-01-28T07:30:09.738Z,21.77
2019-01-28T07:32:38.054Z,21.97
2019-01-28T07:35:09.582Z,20.47
2019-01-28T07:37:37.862Z,22.80
2019-01-28T07:40:09.789Z,21.47
2019-01-28T07:42:38.146Z,20.57
2019-01-28T07:45:09.771Z,20.37
2019-01-28T07:47:38.289Z,19.87
2019-01-28T07:50:07.498Z,19.70
2019-01-28T07:52:35.838Z,19.87
2019-01-28T07:55:05.823Z,21.10
2019-01-28T07:57:34.099Z,23.17
2019-01-28T08:00:02.394Z,19.83
2019-01-28T08:02:30.667Z,21.03
2019-01-28T08:05:00.255Z,20.43
2019-01-28T08:07:28.566Z,20.07
2019-01-28T08:09:56.842Z,20.60
2019-01-28T08:12:25.121Z,21.40
2019-01-28T08:14:53.421Z,21.13
2019-01-28T08:17:21.953Z,22.20
2019-01-28T08:19:50.435Z,22.60
2019-01-28T08:22:18.777Z,22.80
2019-01-28T08:24:47.045Z,20.67
2019-01-28T08:27:15.321Z,21.07
2019-01-28T08:29:43.597Z,19.73
2019-01-28T08:32:11.963Z,22.07
2019-01-28T08:34:40.306Z,22.37
2019-01-28T08:37:08.646Z,24.03
2019-01-28T08:39:36.976Z,24.77
2019-01-28T08:42:05.347Z,23.43
2019-01-28T08:44:33.621Z,20.57
2019-01-28T08:47:01.893Z,22.33
2019-01-28T08:49:30.185Z,20.80
2019-01-28T08:51:58.490Z,25.03
2019-01-28T08:54:26.769Z,23.07
2019-01-28T08:56:55.042Z,22.63
2019-01-28T08:59:23.331Z,21.83
2019-01-28T09:01:51.608Z,23.60
2019-01-28T09:04:20.136Z,28.97
2019-01-28T09:06:48.433Z,27.30
2019-01-28T09:09:16.792Z,24.30
2019-01-28T09:11:45.076Z,24.70
2019-01-28T09:14:13.356Z,23.77
2019-01-28T09:16:41.644Z,23.70
2019-01-28T09:19:09.943Z,24.57
2019-01-28T09:21:38.222Z,25.30
2019-01-28T09:24:06.640Z,23.53
2019-01-28T09:26:34.924Z,24.43
2019-01-28T09:29:03.180Z,32.37
2019-01-28T09:31:31.470Z,28.03
2019-01-28T09:33:59.782Z,24.03
2019-01-28T09:36:28.049Z,24.93
2019-01-28T09:38:57.942Z,30.80
2019-01-28T09:41:26.241Z,24.17
2019-01-28T09:43:56.209Z,26.43
2019-01-28T09:46:24.482Z,23.93
2019-01-28T09:48:52.753Z,28.63
2019-01-28T09:51:21.038Z,28.37
2019-01-28T09:53:49.311Z,27.67
2019-01-28T09:56:17.589Z,25.40
2019-01-28T09:58:45.903Z,24.60
2019-01-28T10:01:14.260Z,23.57
2019-01-28T10:03:42.610Z,23.53
2019-01-28T10:06:10.931Z,27.93
2019-01-28T10:08:39.260Z,22.90
2019-01-28T10:11:07.538Z,25.50
2019-01-28T10:13:35.836Z,23.27
2019-01-28T10:16:04.123Z,24.70
2019-01-28T10:18:32.390Z,26.70
2019-01-28T10:21:00.678Z,26.93
2019-01-28T10:23:28.949Z,26.33
2019-01-28T10:25:57.872Z,27.50
2019-01-28T10:28:26.319Z,27.93
2019-01-28T10:30:54.621Z,28.20
2019-01-28T10:33:22.902Z,27.30
2019-01-28T10:35:51.366Z,23.50
2019-01-28T10:38:19.654Z,25.43
2019-01-28T10:40:47.925Z,29.30
2019-01-28T10:43:16.239Z,25.47
2019-01-28T10:45:44.514Z,27.50
2019-01-28T10:48:14.054Z,27.63
2019-01-28T10:50:43.597Z,28.27
2019-01-28T10:53:11.904Z,25.53
2019-01-28T10:55:40.182Z,25.73
2019-01-28T10:58:08.449Z,27.93
2019-01-28T11:00:39.976Z,28.53
2019-01-28T11:03:09.685Z,29.10
2019-01-28T11:05:37.962Z,27.83
2019-01-28T11:08:06.834Z,29.27
2019-01-28T11:10:35.204Z,28.07
2019-01-28T11:13:05.152Z,30.67
2019-01-28T11:15:33.715Z,30.93
2019-01-28T11:18:11.363Z,28.63
2019-01-28T11:20:39.733Z,28.80
2019-01-28T11:23:08.222Z,27.10
2019-01-28T11:25:36.983Z,25.83
2019-01-28T11:28:05.244Z,24.87
2019-01-28T11:30:46.824Z,25.30
2019-01-28T11:33:15.244Z,28.87
2019-01-28T11:35:43.795Z,26.90
2019-01-28T11:38:12.875Z,31.53
2019-01-28T11:40:41.220Z,32.87
2019-01-28T11:43:09.577Z,28.90
2019-01-28T11:45:50.256Z,24.93
2019-01-28T11:48:18.629Z,23.97
2019-01-28T11:50:47.074Z,24.60
2019-01-28T11:53:15.443Z,22.97
2019-01-28T11:55:43.715Z,26.07
2019-01-28T11:58:11.977Z,25.17
2019-01-28T12:00:44.984Z,23.80
2019-01-28T12:03:13.251Z,25.83
2019-01-28T12:05:41.526Z,26.47
2019-01-28T12:08:09.808Z,28.43
2019-01-28T12:10:38.082Z,29.80
2019-01-28T12:13:06.388Z,28.60
2019-01-28T12:15:34.763Z,29.47
2019-01-28T12:18:03.084Z,26.07
2019-01-28T12:20:31.377Z,31.77
2019-01-28T12:22:59.726Z,28.40
2019-01-28T12:25:28.002Z,31.77
2019-01-28T12:27:56.278Z,32.23
2019-01-28T12:30:31.912Z,27.50
2019-01-28T12:33:00.875Z,28.20
2019-01-28T12:35:48.620Z,24.67
2019-01-28T12:38:16.926Z,38.57
2019-01-28T12:40:45.204Z,34.70
2019-01-28T12:43:13.554Z,30.57
2019-01-28T12:45:41.912Z,34.77
2019-01-28T12:48:10.201Z,36.13
2019-01-28T12:50:38.548Z,40.63
2019-01-28T12:53:06.884Z,37.37
2019-01-28T12:55:35.212Z,40.60
2019-01-28T12:58:03.699Z,41.53
2019-01-28T13:00:38.240Z,40.20
2019-01-28T13:03:06.686Z,37.77
2019-01-28T13:05:35.031Z,35.10
2019-01-28T13:08:03.317Z,37.17
2019-01-28T13:10:31.592Z,37.53
2019-01-28T13:12:59.884Z,37.37
2019-01-28T13:15:32.845Z,39.77
2019-01-28T13:18:01.186Z,44.57
2019-01-28T13:20:29.514Z,42.23
2019-01-28T13:22:57.846Z,41.67
2019-01-28T13:25:35.010Z,33.07
2019-01-28T13:28:04.237Z,36.10
2019-01-28T13:30:35.505Z,29.70
2019-01-28T13:33:20.077Z,31.27
2019-01-28T13:35:49.058Z,29.53
2019-01-28T13:38:17.386Z,33.73
2019-01-28T13:40:45.658Z,36.73
2019-01-28T13:43:13.953Z,30.90
2019-01-28T13:45:42.234Z,26.90
2019-01-28T13:48:10.794Z,29.60
2019-01-28T13:50:39.110Z,30.70
2019-01-28T13:53:07.375Z,28.90
2019-01-28T13:55:35.643Z,28.90
2019-01-28T13:58:04.533Z,27.03
2019-01-28T14:00:32.942Z,29.17
2019-01-28T14:03:01.239Z,26.67
2019-01-28T14:05:29.519Z,28.80
2019-01-28T14:07:57.821Z,26.27
2019-01-28T14:10:26.424Z,29.00
2019-01-28T14:12:54.692Z,29.70
2019-01-28T14:15:26.285Z,28.90
2019-01-28T14:17:54.621Z,29.40
2019-01-28T14:20:32.442Z,32.43
2019-01-28T14:23:00.730Z,33.80
2019-01-28T14:25:29.070Z,29.20
2019-01-28T14:27:57.367Z,29.97
2019-01-28T14:30:37.043Z,33.37
2019-01-28T14:33:06.376Z,35.63
2019-01-28T14:35:34.706Z,37.73
2019-01-28T14:38:03.851Z,39.73
2019-01-28T14:40:32.745Z,32.67
2019-01-28T14:43:01.029Z,37.93
2019-01-28T14:45:29.377Z,35.80
2019-01-28T14:47:57.660Z,34.77
2019-01-28T14:50:28.666Z,37.23
2019-01-28T14:52:56.989Z,35.80
2019-01-28T14:55:25.267Z,37.97
2019-01-28T14:58:16.474Z,34.30
2019-01-28T15:00:44.094Z,34.67
2019-01-28T15:03:12.455Z,34.43
2019-01-28T15:05:40.727Z,34.53
2019-01-28T15:08:09.001Z,33.53
2019-01-28T15:10:37.305Z,34.40
2019-01-28T15:13:05.573Z,35.13
2019-01-28T15:15:36.198Z,35.07
2019-01-28T15:18:05.809Z,35.87
2019-01-28T15:20:34.170Z,38.13
2019-01-28T15:23:02.555Z,35.33
2019-01-28T15:25:30.838Z,39.97
2019-01-28T15:27:59.106Z,40.87
2019-01-28T15:30:29.571Z,43.43
2019-01-28T15:32:57.914Z,40.53
2019-01-28T15:35:26.201Z,39.47
2019-01-28T15:37:54.582Z,41.47
2019-01-28T15:40:25.794Z,41.27
2019-01-28T15:42:54.062Z,38.93
2019-01-28T15:45:25.017Z,41.73
2019-01-28T15:47:53.286Z,48.50
2019-01-28T15:50:21.562Z,45.93
2019-01-28T15:52:51.162Z,45.20
2019-01-28T15:55:22.915Z,49.80
2019-01-28T15:57:51.299Z,47.77
2019-01-28T16:00:25.503Z,47.30
2019-01-28T16:02:54.217Z,42.73
2019-01-28T16:05:22.531Z,41.83
2019-01-28T16:07:50.812Z,40.57
2019-01-28T16:10:19.249Z,41.57
2019-01-28T16:12:47.571Z,40.83
2019-01-28T16:15:24.986Z,38.03
2019-01-28T16:17:53.266Z,40.90
2019-01-28T16:20:21.580Z,44.13
2019-01-28T16:22:49.854Z,44.73
2019-01-28T16:25:18.125Z,45.33
2019-01-28T16:27:46.490Z,47.20
2019-01-28T16:30:26.486Z,45.40
2019-01-28T16:32:53.796Z,44.90
2019-01-28T16:35:22.087Z,48.40
2019-01-28T16:37:52.103Z,43.73
2019-01-28T16:40:25.518Z,41.23
2019-01-28T16:42:53.957Z,37.97
2019-01-28T16:45:22.269Z,38.73
2019-01-28T16:47:50.559Z,41.37
2019-01-28T16:50:35.516Z,44.43
2019-01-28T16:53:03.821Z,43.80
2019-01-28T16:55:32.085Z,41.63
2019-01-28T16:58:01.079Z,45.30
2019-01-28T17:00:40.114Z,46.43
2019-01-28T17:03:09.969Z,62.10
2019-01-28T17:05:38.610Z,52.70
2019-01-28T17:08:07.071Z,64.00
2019-01-28T17:10:35.389Z,65.77
2019-01-28T17:13:04.029Z,63.53
2019-01-28T17:15:32.303Z,66.37
2019-01-28T17:18:00.568Z,59.43
2019-01-28T17:20:35.555Z,55.53
2019-01-28T17:23:03.735Z,53.20
2019-01-28T17:25:34.946Z,51.50
2019-01-28T17:28:03.256Z,51.00
2019-01-28T17:30:40.618Z,50.70
2019-01-28T17:33:08.968Z,51.53
2019-01-28T17:35:37.310Z,49.67
2019-01-28T17:38:06.960Z,48.57
2019-01-28T17:40:37.429Z,49.83
2019-01-28T17:43:07.033Z,55.53
2019-01-28T17:45:35.378Z,53.57
2019-01-28T17:48:03.828Z,51.57
2019-01-28T17:50:32.107Z,50.77
2019-01-28T17:53:00.395Z,49.20
2019-01-28T17:55:28.685Z,52.40
2019-01-28T17:57:56.971Z,68.87
2019-01-28T18:00:30.718Z,68.80
2019-01-28T18:02:59.198Z,65.03
2019-01-28T18:05:27.537Z,58.30
2019-01-28T18:07:55.813Z,55.87
2019-01-28T18:10:24.086Z,59.47
2019-01-28T18:12:52.360Z,59.43
2019-01-28T18:15:25.599Z,61.90
2019-01-28T18:17:53.942Z,58.97
2019-01-28T18:20:22.226Z,60.03
2019-01-28T18:22:50.529Z,64.03
2019-01-28T18:25:25.028Z,65.07
2019-01-28T18:27:53.315Z,66.07
2019-01-28T18:30:34.861Z,64.77
2019-01-28T18:33:03.361Z,64.90
2019-01-28T18:35:31.705Z,62.70
2019-01-28T18:38:00.149Z,60.37
2019-01-28T18:40:28.938Z,63.73
2019-01-28T18:42:57.543Z,65.07
2019-01-28T18:45:26.053Z,63.10
2019-01-28T18:47:54.395Z,60.37
2019-01-28T18:50:23.766Z,67.40
2019-01-28T18:52:52.567Z,57.20
2019-01-28T18:55:22.161Z,56.67
2019-01-28T18:57:50.523Z,55.70
2019-01-28T19:00:21.498Z,58.67
2019-01-28T19:02:49.776Z,56.37
2019-01-28T19:05:37.100Z,57.43
2019-01-28T19:08:15.838Z,59.83
2019-01-28T19:10:51.847Z,62.03
2019-01-28T19:13:30.538Z,54.33
2019-01-28T19:16:03.274Z,55.47
2019-01-28T19:18:33.199Z,58.73
2019-01-28T19:21:07.768Z,55.83
2019-01-28T19:23:33.125Z,53.60
2019-01-28T19:26:01.410Z,54.60
2019-01-28T19:28:29.953Z,54.47
2019-01-28T19:30:58.240Z,55.23
2019-01-28T19:33:26.576Z,52.83
2019-01-28T19:35:54.862Z,54.00
2019-01-28T19:38:23.139Z,54.70
2019-01-28T19:40:51.501Z,55.83
2019-01-28T19:43:25.774Z,52.83
2019-01-28T19:45:54.052Z,47.07
2019-01-28T19:48:22.349Z,47.57
2019-01-28T19:50:50.633Z,49.17
2019-01-28T19:53:18.909Z,48.53
2019-01-28T19:55:47.218Z,48.10
2019-01-28T19:58:15.496Z,50.50
2019-01-28T20:00:43.761Z,46.33
2019-01-28T20:03:12.538Z,46.93
2019-01-28T20:05:40.819Z,48.83
2019-01-28T20:08:09.112Z,50.10
2019-01-28T20:10:37.386Z,46.57
2019-01-28T20:13:05.670Z,49.70
2019-01-28T20:15:33.951Z,48.33
2019-01-28T20:18:02.225Z,48.13
2019-01-28T20:20:30.609Z,50.70
2019-01-28T20:22:58.941Z,46.53
2019-01-28T20:25:27.701Z,49.93
2019-01-28T20:27:56.123Z,52.00
2019-01-28T20:30:26.482Z,52.23
2019-01-28T20:32:54.765Z,49.40
2019-01-28T20:35:23.110Z,47.53
2019-01-28T20:37:51.384Z,49.73
2019-01-28T20:40:19.672Z,49.73
2019-01-28T20:42:47.950Z,50.77
2019-01-28T20:45:45.027Z,50.13
2019-01-28T20:48:10.057Z,47.67
2019-01-28T20:50:38.350Z,47.57
2019-01-28T20:53:06.730Z,48.07
2019-01-28T20:55:35.009Z,50.50
2019-01-28T20:58:03.303Z,49.77
2019-01-28T21:00:31.711Z,50.10
2019-01-28T21:03:00.075Z,48.07
2019-01-28T21:05:28.426Z,47.93
2019-01-28T21:07:57.007Z,49.03
2019-01-28T21:10:25.560Z,48.73
2019-01-28T21:12:54.107Z,49.27
2019-01-28T21:15:23.456Z,56.40
2019-01-28T21:17:51.806Z,52.97
2019-01-28T21:20:21.489Z,53.50
2019-01-28T21:22:50.464Z,54.33
2019-01-28T21:25:26.813Z,53.03
2019-01-28T21:27:55.146Z,54.30
2019-01-28T21:30:29.484Z,55.90
2019-01-28T21:32:57.758Z,56.63
2019-01-28T21:35:33.259Z,52.47
2019-01-28T21:38:03.241Z,55.33
2019-01-28T21:40:31.603Z,52.43
2019-01-28T21:42:59.896Z,54.00
2019-01-28T21:45:28.183Z,53.57
2019-01-28T21:47:56.470Z,54.63
2019-01-28T21:50:26.689Z,54.17
2019-01-28T21:52:54.968Z,53.83
2019-01-28T21:55:23.266Z,54.27
2019-01-28T21:57:51.532Z,55.53
2019-01-28T22:00:19.817Z,54.23
2019-01-28T22:02:48.391Z,53.97
2019-01-28T22:05:16.700Z,57.70
2019-01-28T22:07:44.972Z,58.60
2019-01-28T22:10:14.889Z,61.57
2019-01-28T22:12:43.173Z,58.03
2019-01-28T22:15:17.706Z,60.17
2019-01-28T22:17:45.997Z,60.03
2019-01-28T22:20:15.403Z,67.33
2019-01-28T22:22:43.793Z,62.00
2019-01-28T22:25:16.854Z,63.47
2019-01-28T22:27:45.142Z,63.77
2019-01-28T22:30:24.349Z,62.67
2019-01-28T22:32:52.642Z,63.57
2019-01-28T22:35:21.071Z,61.77
2019-01-28T22:37:49.360Z,59.50
2019-01-28T22:40:18.786Z,57.27
2019-01-28T22:42:47.117Z,56.30
2019-01-28T22:45:19.557Z,57.17
2019-01-28T22:47:47.914Z,60.47
2019-01-28T22:50:17.866Z,57.13
2019-01-28T22:52:46.146Z,56.67
2019-01-28T22:55:19.513Z,56.20
2019-01-28T22:57:47.807Z,52.57
2019-01-28T23:00:47.817Z,56.57
2019-01-28T23:03:18.026Z,50.47
2019-01-28T23:05:46.319Z,56.73
2019-01-28T23:08:15.810Z,61.07
2019-01-28T23:10:44.340Z,61.43
2019-01-28T23:13:12.662Z,59.50
2019-01-28T23:15:40.955Z,58.67
2019-01-28T23:18:09.221Z,55.80
2019-01-28T23:20:37.538Z,55.17
2019-01-28T23:23:05.813Z,56.77
2019-01-28T23:25:34.135Z,50.87
2019-01-28T23:28:02.477Z,48.63
2019-01-28T23:30:30.781Z,47.50
2019-01-28T23:32:59.206Z,52.77
2019-01-28T23:35:27.611Z,48.57
2019-01-28T23:37:55.886Z,49.87
2019-01-28T23:40:24.166Z,50.20
2019-01-28T23:42:53.117Z,49.10
2019-01-28T23:45:21.398Z,47.80
2019-01-28T23:47:49.687Z,45.60
2019-01-28T23:50:18.049Z,47.63
2019-01-28T23:52:46.430Z,43.93
2019-01-28T23:55:14.779Z,47.90
2019-01-28T23:57:43.150Z,44.63
